Time;durP1;ratioP1;P1;durP2;ratioP2;P2;SDS_P1;SDS_P2;PMS_P1;PMS_P2;Temp;Humidity;BMP_temperature;BMP_pressure;BME280_temperature;BME280_humidity;BME280_pressure;Samples;Min_cycle;Max_cycle;Signal;HPM_P1;HPM_P2
2023/08/17 00:02:36;;;;;;;;;;;;;;;14.61;100.00;102298.06;4998303;28;20438;-76
2023/08/17 00:05:22;;;;;;;;;;;;;;;14.60;100.00;102293.66;4999382;28;19964;-77
2023/08/17 00:08:08;;;;;;;;;;;;;;;14.58;100.00;102292.84;5015433;28;19926;-78
2023/08/17 00:10:53;;;;;;;;;;;;;;;14.55;100.00;102292.97;5003645;28;20785;-76
2023/08/17 00:13:42;;;;;;;;;;;;;;;14.50;100.00;102295.81;5016227;28;20663;-78
2023/08/17 00:16:28;;;;;;;;;;;;;;;14.47;100.00;102296.81;5000928;28;20576;-78
2023/08/17 00:19:16;;;;;;;;;;;;;;;14.42;100.00;102293.44;5001985;28;20413;-76
2023/08/17 00:22:02;;;;;;;;;;;;;;;14.40;100.00;102298.81;5003381;28;19929;-78
2023/08/17 00:24:47;;;;;;;;;;;;;;;14.38;100.00;102300.69;5014793;28;19920;-77
2023/08/17 00:27:33;;;;;;;;;;;;;;;14.37;100.00;102298.06;5018470;28;20646;-77
2023/08/17 00:30:21;;;;;;;;;;;;;;;14.35;100.00;102302.59;5015714;28;19954;-77
2023/08/17 00:33:07;;;;;;;;;;;;;;;14.32;100.00;102292.94;5019165;28;19928;-78
2023/08/17 00:35:53;;;;;;;;;;;;;;;14.31;100.00;102291.19;5020621;28;20271;-76
2023/08/17 00:38:38;;;;;;;;;;;;;;;14.29;100.00;102287.72;5020628;28;19925;-77
2023/08/17 00:41:24;;;;;;;;;;;;;;;14.29;100.00;102282.41;5007250;28;19921;-78
2023/08/17 00:44:09;;;;;;;;;;;;;;;14.29;100.00;102281.53;5020292;28;19928;-78
2023/08/17 00:46:58;;;;;;;;;;;;;;;14.30;100.00;102277.94;5003519;28;19976;-78
2023/08/17 00:49:43;;;;;;;;;;;;;;;14.28;100.00;102285.13;5013342;28;19924;-77
2023/08/17 00:52:30;;;;;;;;;;;;;;;14.25;100.00;102281.66;5014905;28;20056;-78
2023/08/17 00:55:15;;;;;;;;;;;;;;;14.22;100.00;102279.09;5003548;28;22002;-77
2023/08/17 00:58:01;;;;;;;;;;;;;;;14.21;100.00;102272.03;5016381;28;19921;-77
2023/08/17 01:00:46;;;;;;;;;;;;;;;14.19;100.00;102268.56;5016344;28;20054;-78
2023/08/17 01:03:32;;;;;;;;;;;;;;;14.17;100.00;102265.06;4998415;28;19924;-77
2023/08/17 01:06:18;;;;;;;;;;;;;;;14.13;100.00;102261.66;4989211;28;20004;-79
2023/08/17 01:09:04;;;;;;;;;;;;;;;14.11;100.00;102263.53;5015345;28;19931;-77
2023/08/17 01:11:56;;;;;;;;;;;;;;;14.10;100.00;102260.91;4999025;28;19995;-78
2023/08/17 01:14:44;;;;;;;;;;;;;;;14.09;100.00;102264.50;5003293;28;19956;-78
2023/08/17 01:17:36;;;;;;;;;;;;;;;14.04;100.00;102266.47;5009834;28;19944;-79
2023/08/17 01:20:23;;;;;;;;;;;;;;;14.01;100.00;102258.59;5001471;28;19924;-79
2023/08/17 01:23:08;;;;;;;;;;;;;;;13.98;100.00;102260.47;4988075;28;19924;-78
2023/08/17 01:25:55;;;;;;;;;;;;;;;13.96;100.00;102256.97;4998280;28;20031;-77
2023/08/17 01:28:42;;;;;;;;;;;;;;;13.92;100.00;102250.03;4999687;28;19941;-79
2023/08/17 01:31:33;;;;;;;;;;;;;;;13.89;100.00;102251.94;4998492;28;21602;-78
2023/08/17 01:34:19;;;;;;;;;;;;;;;13.85;100.00;102252.06;4999202;28;19956;-77
2023/08/17 01:37:06;;;;;;;;;;;;;;;13.83;100.00;102250.38;5003965;28;19931;-77
2023/08/17 01:39:52;;;;;;;;;;;;;;;13.81;100.00;102250.44;4999577;28;19964;-77
2023/08/17 01:42:38;;;;;;;;;;;;;;;13.80;100.00;102254.03;5006258;28;20450;-78
2023/08/17 01:45:24;;;;;;;;;;;;;;;13.80;100.00;102247.84;5004088;28;19920;-79
2023/08/17 01:48:10;;;;;;;;;;;;;;;13.81;100.00;102257.53;4987128;28;20308;-78
2023/08/17 01:50:55;;;;;;;;;;;;;;;13.82;100.00;102262.81;4989532;28;19939;-77
2023/08/17 01:53:41;;;;;;;;;;;;;;;13.80;100.00;102258.47;5014826;28;20536;-78
2023/08/17 01:56:27;;;;;;;;;;;;;;;13.82;100.00;102256.63;4994871;28;19928;-77
2023/08/17 01:59:13;;;;;;;;;;;;;;;13.83;100.00;102261.00;4996892;28;19936;-78
2023/08/17 02:02:03;;;;;;;;;;;;;;;13.80;100.00;102254.03;5006736;28;20015;-79
2023/08/17 02:04:49;;;;;;;;;;;;;;;13.78;100.00;102249.69;5001984;28;19943;-79
2023/08/17 02:07:34;;;;;;;;;;;;;;;13.79;100.00;102256.75;5000312;28;19937;-78
2023/08/17 02:10:23;;;;;;;;;;;;;;;13.81;100.00;102250.44;5003741;28;19928;-78
2023/08/17 02:13:09;;;;;;;;;;;;;;;13.83;100.00;102245.03;5000441;28;20392;-81
2023/08/17 02:15:55;;;;;;;;;;;;;;;13.84;100.00;102244.16;5002588;28;19928;-78
2023/08/17 02:18:40;;;;;;;;;;;;;;;13.83;100.00;102247.69;5003366;28;20898;-79
2023/08/17 02:21:26;;;;;;;;;;;;;;;13.80;100.00;102248.72;4997265;28;20391;-78
2023/08/17 02:24:12;;;;;;;;;;;;;;;13.80;100.00;102251.38;5002436;28;19937;-79
2023/08/17 02:26:57;;;;;;;;;;;;;;;13.80;100.00;102247.84;5000020;28;20315;-78
2023/08/17 02:29:43;;;;;;;;;;;;;;;13.80;100.00;102246.06;5001403;28;20402;-77
2023/08/17 02:32:29;;;;;;;;;;;;;;;13.77;100.00;102245.28;5003543;28;20449;-78
2023/08/17 02:35:14;;;;;;;;;;;;;;;13.72;100.00;102245.44;5000867;28;19917;-78
2023/08/17 02:38:03;;;;;;;;;;;;;;;13.69;100.00;102241.09;5000390;28;20724;-79
2023/08/17 02:40:49;;;;;;;;;;;;;;;13.66;100.00;102243.00;5001026;28;20010;-78
2023/08/17 02:43:34;;;;;;;;;;;;;;;13.63;100.00;102235.13;5000342;28;20450;-77
2023/08/17 02:46:20;;;;;;;;;;;;;;;13.62;100.00;102233.41;5003372;28;20458;-77
2023/08/17 02:49:06;;;;;;;;;;;;;;;13.61;100.00;102231.69;4995773;28;20024;-78
2023/08/17 02:51:51;;;;;;;;;;;;;;;13.59;100.00;102226.41;4998720;28;21395;-79
2023/08/17 02:54:37;;;;;;;;;;;;;;;13.58;100.00;102220.19;5001347;28;19940;-78
2023/08/17 02:57:23;;;;;;;;;;;;;;;13.60;100.00;102225.47;5001092;28;19960;-77
2023/08/17 03:00:08;;;;;;;;;;;;;;;13.60;100.00;102229.91;4998771;28;19937;-77
2023/08/17 03:02:54;;;;;;;;;;;;;;;13.57;100.00;102225.59;4974540;28;19928;-77
2023/08/17 03:05:40;;;;;;;;;;;;;;;13.56;100.00;102229.16;5001052;28;19926;-77
2023/08/17 03:08:25;;;;;;;;;;;;;;;13.55;100.00;102224.75;4997709;28;21724;-78
2023/08/17 03:11:11;;;;;;;;;;;;;;;13.53;100.00;102229.28;4996361;28;19930;-81
2023/08/17 03:14:00;;;;;;;;;;;;;;;13.49;100.00;102223.19;4997940;28;19921;-78
2023/08/17 03:16:46;;;;;;;;;;;;;;;13.49;100.00;102224.97;5001427;28;19949;-78
2023/08/17 03:19:34;;;;;;;;;;;;;;;13.49;100.00;102232.97;4998607;28;19921;-78
2023/08/17 03:22:19;;;;;;;;;;;;;;;13.50;100.00;102232.06;5008639;28;19936;-78
2023/08/17 03:25:05;;;;;;;;;;;;;;;13.51;100.00;102236.47;4997708;28;19976;-78
2023/08/17 03:27:51;;;;;;;;;;;;;;;13.54;100.00;102241.66;4997057;28;20403;-77
2023/08/17 03:30:37;;;;;;;;;;;;;;;13.56;100.00;102234.47;5000743;28;19956;-76
2023/08/17 03:33:25;;;;;;;;;;;;;;;13.55;100.00;102235.41;4995351;28;20015;-78
2023/08/17 03:36:13;;;;;;;;;;;;;;;13.58;100.00;102240.63;4999461;28;19985;-77
2023/08/17 03:38:59;;;;;;;;;;;;;;;13.56;100.00;102235.34;4990346;28;19933;-77
2023/08/17 03:41:45;;;;;;;;;;;;;;;13.57;100.00;102244.22;5003826;28;19937;-77
2023/08/17 03:44:33;;;;;;;;;;;;;;;13.55;100.00;102238.06;4988577;28;20372;-78
2023/08/17 03:47:19;;;;;;;;;;;;;;;13.54;100.00;102236.34;4997927;28;19930;-78
2023/08/17 03:50:05;;;;;;;;;;;;;;;13.51;100.00;102239.97;4980361;28;20031;-78
2023/08/17 03:52:50;;;;;;;;;;;;;;;13.49;100.00;102236.50;4991161;28;19925;-79
2023/08/17 03:55:36;;;;;;;;;;;;;;;13.48;100.00;102237.44;4996569;28;19925;-77
2023/08/17 03:58:22;;;;;;;;;;;;;;;13.46;100.00;102233.97;5014371;28;19925;-78
2023/08/17 04:01:07;;;;;;;;;;;;;;;13.43;100.00;102234.91;5000418;28;19935;-78
2023/08/17 04:03:53;;;;;;;;;;;;;;;13.42;100.00;102238.47;5015741;28;20692;-79
2023/08/17 04:06:41;;;;;;;;;;;;;;;13.43;100.00;102232.25;5014952;28;20761;-77
2023/08/17 04:09:27;;;;;;;;;;;;;;;13.46;100.00;102228.66;5017209;28;19987;-78
2023/08/17 04:12:13;;;;;;;;;;;;;;;13.49;100.00;102232.97;5004063;28;19924;-78
2023/08/17 04:14:59;;;;;;;;;;;;;;;13.53;100.00;102235.47;5019470;28;19925;-77
2023/08/17 04:17:44;;;;;;;;;;;;;;;13.57;100.00;102230.91;5014638;28;20470;-78
2023/08/17 04:20:32;;;;;;;;;;;;;;;13.64;100.00;102226.22;4999088;28;19935;-77
2023/08/17 04:23:18;;;;;;;;;;;;;;;13.73;100.00;102233.00;5015204;28;20361;-79
2023/08/17 04:26:04;;;;;;;;;;;;;;;13.79;100.00;102230.97;4995282;28;19925;-78
2023/08/17 04:28:59;;;;;;;;;;;;;;;13.85;100.00;102233.41;5013838;28;19991;-78
2023/08/17 04:31:45;;;;;;;;;;;;;;;13.92;100.00;102238.50;5010560;28;19988;-78
2023/08/17 04:34:31;;;;;;;;;;;;;;;13.96;100.00;102235.66;5000920;28;19929;-78
2023/08/17 04:37:17;;;;;;;;;;;;;;;14.02;100.00;102231.06;5016852;28;19936;-82
2023/08/17 04:40:02;;;;;;;;;;;;;;;14.07;100.00;102232.63;5002636;28;20376;-77
2023/08/17 04:42:48;;;;;;;;;;;;;;;14.13;100.00;102236.84;5017748;28;19948;-78
2023/08/17 04:45:36;;;;;;;;;;;;;;;14.18;100.00;102239.31;5006306;28;20355;-78
2023/08/17 04:48:22;;;;;;;;;;;;;;;14.21;100.00;102233.88;5016802;28;20364;-78
2023/08/17 04:51:08;;;;;;;;;;;;;;;14.24;100.00;102236.44;5002817;28;19925;-77
2023/08/17 04:53:54;;;;;;;;;;;;;;;14.28;100.00;102235.38;4998513;28;19971;-78
2023/08/17 04:56:39;;;;;;;;;;;;;;;14.30;100.00;102248.63;4988489;28;19935;-77
2023/08/17 04:59:25;;;;;;;;;;;;;;;14.31;100.00;102234.38;5018229;28;19932;-78
2023/08/17 05:02:11;;;;;;;;;;;;;;;14.33;100.00;102224.56;5002725;28;19920;-78
2023/08/17 05:04:56;;;;;;;;;;;;;;;14.33;100.00;102225.41;4985831;28;20441;-80
2023/08/17 05:07:42;;;;;;;;;;;;;;;14.34;100.00;102216.47;5002053;28;20505;-78
2023/08/17 05:10:28;;;;;;;;;;;;;;;14.37;100.00;102221.69;5004087;28;20363;-80
2023/08/17 05:13:13;;;;;;;;;;;;;;;14.40;100.00;102210.91;5002828;28;19975;-78
2023/08/17 05:15:59;;;;;;;;;;;;;;;14.45;100.00;102215.19;5000735;28;20338;-78
2023/08/17 05:18:45;;;;;;;;;;;;;;;14.47;100.00;102222.19;5019454;28;20319;-77
2023/08/17 05:21:30;;;;;;;;;;;;;;;14.51;100.00;102229.13;5003137;28;20463;-78
2023/08/17 05:24:20;;;;;;;;;;;;;;;14.54;100.00;102236.13;5000654;28;20595;-78
2023/08/17 05:27:08;;;;;;;;;;;;;;;14.55;100.00;102226.34;4989146;28;19932;-78
2023/08/17 05:29:54;;;;;;;;;;;;;;;14.55;100.00;102232.56;5014876;28;19921;-79
2023/08/17 05:32:40;;;;;;;;;;;;;;;14.59;100.00;102227.97;4999692;28;19929;-77
2023/08/17 05:35:25;;;;;;;;;;;;;;;14.61;100.00;102224.28;5004853;28;19975;-78
2023/08/17 05:38:11;;;;;;;;;;;;;;;14.63;100.00;102222.44;5001469;28;20307;-78
2023/08/17 05:40:57;;;;;;;;;;;;;;;14.66;100.00;102232.13;5014588;28;19937;-77
2023/08/17 05:43:46;;;;;;;;;;;;;;;14.70;100.00;102224.88;5002839;28;19956;-77
2023/08/17 05:46:31;;;;;;;;;;;;;;;14.72;100.00;102223.88;5002677;28;19925;-79
2023/08/17 05:49:17;;;;;;;;;;;;;;;14.79;100.00;102225.41;5016012;28;19929;-77
2023/08/17 05:52:03;;;;;;;;;;;;;;;14.85;100.00;102231.38;4996812;28;21851;-77
2023/08/17 05:54:49;;;;;;;;;;;;;;;14.94;100.00;102231.00;5017890;28;19931;-77
2023/08/17 05:57:35;;;;;;;;;;;;;;;15.04;100.00;102220.81;5004258;28;19936;-78
2023/08/17 06:00:23;;;;;;;;;;;;;;;15.19;100.00;102221.94;5004475;28;20035;-76
2023/08/17 06:03:09;;;;;;;;;;;;;;;15.38;100.00;102213.16;5004447;28;20291;-78
2023/08/17 06:05:54;;;;;;;;;;;;;;;15.56;100.00;102215.00;5017186;28;19948;-77
2023/08/17 06:08:40;;;;;;;;;;;;;;;15.78;100.00;102227.38;5005406;28;20074;-78
2023/08/17 06:11:28;;;;;;;;;;;;;;;16.00;100.00;102221.94;5001496;28;20020;-77
2023/08/17 06:14:14;;;;;;;;;;;;;;;16.30;100.00;102215.22;5003873;28;20108;-77
2023/08/17 06:17:00;;;;;;;;;;;;;;;16.55;100.00;102211.34;5005397;28;19932;-78
2023/08/17 06:19:46;;;;;;;;;;;;;;;16.69;100.00;102210.69;5003347;28;19927;-76
2023/08/17 06:22:59;;;;;;;;;;;;;;;16.76;100.00;102212.09;5002246;28;20398;-77
2023/08/17 06:25:45;;;;;;;;;;;;;;;16.82;100.00;102219.81;4997058;28;19925;-77
2023/08/17 06:28:31;;;;;;;;;;;;;;;16.89;100.00;102225.69;5014706;28;19964;-79
2023/08/17 06:31:16;;;;;;;;;;;;;;;16.93;100.00;102229.09;5020812;28;19929;-78
2023/08/17 06:34:05;;;;;;;;;;;;;;;16.99;100.00;102236.81;5000707;28;19925;-78
2023/08/17 06:37:00;;;;;;;;;;;;;;;17.10;100.00;102222.91;5000028;28;20063;-76
2023/08/17 06:39:45;;;;;;;;;;;;;;;17.19;100.00;102219.78;5017057;28;19921;-76
2023/08/17 06:42:31;;;;;;;;;;;;;;;17.27;100.00;102229.22;5012448;28;19925;-78
2023/08/17 06:45:18;;;;;;;;;;;;;;;17.31;100.00;102225.41;5009063;28;19925;-77
2023/08/17 06:48:04;;;;;;;;;;;;;;;17.31;100.00;102220.06;4993831;28;20617;-77
2023/08/17 06:50:49;;;;;;;;;;;;;;;17.33;100.00;102218.19;5013309;28;19921;-80
2023/08/17 06:53:37;;;;;;;;;;;;;;;17.37;100.00;102223.31;4999319;28;19933;-79
2023/08/17 06:56:23;;;;;;;;;;;;;;;17.48;100.00;102221.84;5018252;28;19921;-77
2023/08/17 06:59:12;;;;;;;;;;;;;;;17.62;100.00;102223.81;4998913;28;19983;-77
2023/08/17 07:01:57;;;;;;;;;;;;;;;17.73;100.00;102221.44;5015584;28;19944;-78
2023/08/17 07:04:43;;;;;;;;;;;;;;;17.87;100.00;102217.13;5002259;28;19948;-79
2023/08/17 07:07:31;;;;;;;;;;;;;;;18.04;100.00;102227.75;5015624;28;20379;-77
2023/08/17 07:10:17;;;;;;;;;;;;;;;18.18;100.00;102226.16;4990462;28;20067;-80
2023/08/17 07:13:03;;;;;;;;;;;;;;;18.29;100.00;102226.44;5016651;28;19966;-79
2023/08/17 07:15:49;;;;;;;;;;;;;;;18.38;100.00;102217.00;5001418;28;19928;-80
2023/08/17 07:18:34;;;;;;;;;;;;;;;18.44;100.00;102226.50;5017421;28;20820;-78
2023/08/17 07:21:20;;;;;;;;;;;;;;;18.53;100.00;102220.59;5015127;28;19952;-76
2023/08/17 07:24:13;;;;;;;;;;;;;;;18.57;100.00;102232.91;5000532;28;19925;-79
2023/08/17 07:26:58;;;;;;;;;;;;;;;18.58;100.00;102229.25;5002456;28;20008;-75
2023/08/17 07:29:44;;;;;;;;;;;;;;;18.58;100.00;102233.78;5003760;28;19936;-78
2023/08/17 07:32:30;;;;;;;;;;;;;;;18.54;100.00;102217.00;5002828;28;20592;-74
2023/08/17 07:35:15;;;;;;;;;;;;;;;18.55;100.00;102218.72;5014516;28;20338;-74
2023/08/17 07:38:01;;;;;;;;;;;;;;;18.58;100.00;102223.91;5001682;28;19933;-74
2023/08/17 07:40:47;;;;;;;;;;;;;;;18.58;100.00;102225.72;5013162;28;20694;-75
2023/08/17 07:43:32;;;;;;;;;;;;;;;18.61;100.00;102228.22;4986603;28;20376;-77
2023/08/17 07:46:18;;;;;;;;;;;;;;;18.66;100.00;102238.69;5016052;28;19925;-74
2023/08/17 07:49:06;;;;;;;;;;;;;;;18.72;100.00;102241.00;4999846;28;19929;-74
2023/08/17 07:51:52;;;;;;;;;;;;;;;18.77;100.00;102232.69;5002313;28;20130;-75
2023/08/17 07:54:38;;;;;;;;;;;;;;;18.85;100.00;102242.00;5010826;28;20406;-82
2023/08/17 07:57:23;;;;;;;;;;;;;;;19.02;100.00;102236.63;4996923;28;19939;-78
2023/08/17 08:00:12;;;;;;;;;;;;;;;19.19;100.00;102239.19;4997934;28;19928;-79
2023/08/17 08:02:58;;;;;;;;;;;;;;;19.34;100.00;102247.28;5015314;28;20292;-78
2023/08/17 08:05:44;;;;;;;;;;;;;;;19.41;100.00;102237.88;4997408;28;19925;-78
2023/08/17 08:08:32;;;;;;;;;;;;;;;19.34;100.00;102245.44;5016383;28;19971;-77
2023/08/17 08:11:21;;;;;;;;;;;;;;;19.14;100.00;102247.50;5001741;28;20308;-77
2023/08/17 08:14:07;;;;;;;;;;;;;;;18.96;100.00;102244.06;5014750;28;19936;-79
2023/08/17 08:16:52;;;;;;;;;;;;;;;18.85;100.00;102247.38;5015965;28;19931;-76
2023/08/17 08:19:41;;;;;;;;;;;;;;;18.68;100.00;102244.84;5019470;28;19929;-77
2023/08/17 08:22:27;;;;;;;;;;;;;;;18.54;100.00;102254.53;5014834;28;20012;-77
2023/08/17 08:25:12;;;;;;;;;;;;;;;18.43;100.00;102257.81;5017689;28;19925;-77
2023/08/17 08:27:58;;;;;;;;;;;;;;;18.42;100.00;102255.22;5002621;28;20394;-75
2023/08/17 08:30:44;;;;;;;;;;;;;;;18.42;100.00;102271.31;5017804;28;19924;-77
2023/08/17 08:33:29;;;;;;;;;;;;;;;18.46;100.00;102263.00;5001839;28;19925;-78
2023/08/17 08:36:15;;;;;;;;;;;;;;;18.57;100.00;102259.72;5019014;28;20371;-78
2023/08/17 08:39:01;;;;;;;;;;;;;;;18.71;100.00;102255.38;5001951;28;19936;-78
2023/08/17 08:41:46;;;;;;;;;;;;;;;18.85;100.00;102258.13;5000580;28;19925;-78
2023/08/17 08:44:32;;;;;;;;;;;;;;;18.79;100.00;102250.41;5017961;28;19924;-77
2023/08/17 08:47:18;;;;;;;;;;;;;;;18.78;100.00;102240.66;5017912;28;19921;-76
2023/08/17 08:50:04;;;;;;;;;;;;;;;18.89;100.00;102236.50;5000181;28;21819;-77
2023/08/17 08:52:59;;;;;;;;;;;;;;;18.98;100.00;102236.81;5014484;28;19925;-77
2023/08/17 08:55:49;;;;;;;;;;;;;;;19.04;100.00;102240.97;5018102;28;19925;-77
2023/08/17 08:58:36;;;;;;;;;;;;;;;19.09;100.00;102243.38;5002681;28;20785;-78
2023/08/17 09:01:21;;;;;;;;;;;;;;;18.97;100.00;102250.31;5018997;28;19935;-76
2023/08/17 09:04:07;;;;;;;;;;;;;;;18.90;100.00;102243.56;5016489;28;19932;-78
2023/08/17 09:06:53;;;;;;;;;;;;;;;18.87;100.00;102247.31;4998697;28;21930;-77
2023/08/17 09:09:41;;;;;;;;;;;;;;;18.92;100.00;102244.34;5020003;28;20435;-79
2023/08/17 09:12:27;;;;;;;;;;;;;;;18.98;100.00;102235.94;5015021;28;19925;-77
2023/08/17 09:15:13;;;;;;;;;;;;;;;19.11;100.00;102231.59;4997695;28;20058;-78
2023/08/17 09:17:59;;;;;;;;;;;;;;;19.14;100.00;102233.22;5016926;28;20565;-77
2023/08/17 09:20:45;;;;;;;;;;;;;;;19.11;100.00;102231.59;5018893;28;19929;-75
2023/08/17 09:23:33;;;;;;;;;;;;;;;19.13;100.00;102232.34;5002813;28;20276;-77
2023/08/17 09:26:20;;;;;;;;;;;;;;;19.09;100.00;102233.50;5016110;28;20372;-78
2023/08/17 09:29:18;;;;;;;;;;;;;;;19.04;100.00;102227.56;5017800;28;20382;-79
2023/08/17 09:32:07;;;;;;;;;;;;;;;19.06;100.00;102224.78;4991436;28;19944;-78
2023/08/17 09:34:55;;;;;;;;;;;;;;;19.14;100.00;102219.81;5005345;28;19924;-79
2023/08/17 09:37:41;;;;;;;;;;;;;;;19.19;100.00;102219.53;5004752;28;19925;-79
2023/08/17 09:40:26;;;;;;;;;;;;;;;19.19;100.00;102216.84;5020477;28;20304;-76
2023/08/17 09:43:13;;;;;;;;;;;;;;;19.23;100.00;102208.50;4991004;28;19925;-79
2023/08/17 09:45:59;;;;;;;;;;;;;;;19.27;100.00;102217.25;5003658;28;19921;-79
2023/08/17 09:48:45;;;;;;;;;;;;;;;19.30;100.00;102213.50;5020506;28;20779;-79
2023/08/17 09:51:31;;;;;;;;;;;;;;;19.40;100.00;102215.53;5004773;28;19982;-78
2023/08/17 09:54:44;;;;;;;;;;;;;;;19.44;100.00;102201.94;4999159;28;19925;-75
2023/08/17 09:57:30;;;;;;;;;;;;;;;19.63;100.00;102198.94;5009747;28;20344;-77
2023/08/17 10:00:19;;;;;;;;;;;;;;;19.88;100.00;102200.94;4999203;28;19925;-76
2023/08/17 10:03:05;;;;;;;;;;;;;;;20.02;100.00;102209.97;5005553;28;19927;-75
2023/08/17 10:05:56;;;;;;;;;;;;;;;19.98;100.00;102203.09;4998442;28;19937;-78
2023/08/17 10:08:43;;;;;;;;;;;;;;;19.91;100.00;102192.69;5004102;28;19921;-78
2023/08/17 10:11:29;;;;;;;;;;;;;;;19.82;100.00;102193.25;5007016;28;19952;-78
2023/08/17 10:14:16;;;;;;;;;;;;;;;19.83;100.00;102194.16;4999026;28;19926;-79
2023/08/17 10:17:06;;;;;;;;;;;;;;;19.85;100.00;102193.09;5001520;28;19959;-80
2023/08/17 10:19:53;;;;;;;;;;;;;;;19.98;100.00;102189.66;5002700;28;19932;-83
2023/08/17 10:22:50;;;;;;;;;;;;;;;20.05;100.00;102181.06;5004434;28;19980;-83
2023/08/17 10:25:36;;;;;;;;;;;;;;;19.97;100.00;102174.47;5007189;28;19936;-86
2023/08/17 10:28:22;;;;;;;;;;;;;;;19.81;100.00;102180.78;5008641;28;19933;-84
2023/08/17 10:31:08;;;;;;;;;;;;;;;19.63;100.00;102180.16;5008918;28;19928;-85
2023/08/17 10:33:53;;;;;;;;;;;;;;;19.48;100.00;102173.91;4993236;28;20047;-87
2023/08/17 10:36:42;;;;;;;;;;;;;;;19.48;100.00;102177.47;5004049;28;19936;-86
2023/08/17 10:39:28;;;;;;;;;;;;;;;19.51;100.00;102168.38;4990262;28;19921;-82
2023/08/17 10:42:14;;;;;;;;;;;;;;;19.51;100.00;102168.38;5002087;28;19933;-88
2023/08/17 10:45:03;;;;;;;;;;;;;;;19.60;100.00;102165.09;5004507;28;20021;-85
2023/08/17 10:47:49;;;;;;;;;;;;;;;19.67;100.00;102162.88;5005362;28;19917;-85
2023/08/17 10:50:55;;;;;;;;;;;;;;;19.76;100.00;102161.41;5000052;28;20730;-89
2023/08/17 10:53:43;;;;;;;;;;;;;;;19.75;100.00;102165.94;4996966;28;19925;-83
2023/08/17 10:56:29;;;;;;;;;;;;;;;19.73;100.00;102170.56;4990638;28;20012;-86
2023/08/17 10:59:24;;;;;;;;;;;;;;;19.71;100.00;102164.41;5015817;28;19992;-84
2023/08/17 11:02:12;;;;;;;;;;;;;;;19.79;100.00;102161.22;5001188;28;20268;-84
2023/08/17 11:04:58;;;;;;;;;;;;;;;19.86;100.00;102164.38;4999089;28;19921;-84
2023/08/17 11:07:44;;;;;;;;;;;;;;;19.86;100.00;102154.50;4997438;28;19925;-86
2023/08/17 11:10:29;;;;;;;;;;;;;;;19.82;100.00;102152.97;4988657;28;19925;-86
2023/08/17 11:13:19;;;;;;;;;;;;;;;19.84;100.00;102159.13;5000602;28;19925;-85
2023/08/17 11:16:05;;;;;;;;;;;;;;;19.85;100.00;102155.47;4998194;28;22009;-84
2023/08/17 11:18:51;;;;;;;;;;;;;;;19.82;100.00;102150.28;4983812;28;19921;-86
2023/08/17 11:21:44;;;;;;;;;;;;;;;19.83;100.00;102148.47;4994478;28;19925;-88
2023/08/17 11:24:33;;;;;;;;;;;;;;;19.91;100.00;102149.69;4999032;28;20020;-83
2023/08/17 11:27:24;;;;;;;;;;;;;;;19.99;100.00;102145.69;5000245;28;19921;-84
2023/08/17 11:30:10;;;;;;;;;;;;;;;20.03;100.00;102148.06;4982293;28;20537;-85
2023/08/17 11:32:56;;;;;;;;;;;;;;;20.04;100.00;102154.31;4989547;28;19948;-86
2023/08/17 11:35:42;;;;;;;;;;;;;;;20.05;100.00;102158.72;4996990;28;19932;-86
2023/08/17 11:38:34;;;;;;;;;;;;;;;20.07;100.00;102157.66;5013732;28;19929;-87
2023/08/17 11:41:19;;;;;;;;;;;;;;;20.07;100.00;102154.09;4989439;28;19940;-85
2023/08/17 11:44:05;;;;;;;;;;;;;;;20.00;100.00;102153.63;5009126;28;20442;-84
2023/08/17 11:46:54;;;;;;;;;;;;;;;19.98;100.00;102144.81;5002994;28;19931;-84
2023/08/17 11:49:39;;;;;;;;;;;;;;;20.01;100.00;102143.75;4991865;28;19928;-84
2023/08/17 11:52:28;;;;;;;;;;;;;;;20.04;100.00;102130.97;5003411;28;19933;-86
2023/08/17 11:55:17;;;;;;;;;;;;;;;20.05;100.00;102137.22;4991909;28;19963;-83
2023/08/17 11:58:03;;;;;;;;;;;;;;;20.08;100.00;102137.00;4978352;28;20023;-84
2023/08/17 12:00:49;;;;;;;;;;;;;;;20.11;100.00;102134.13;4970027;28;20012;-86
2023/08/17 12:03:34;;;;;;;;;;;;;;;20.13;100.00;102131.31;4979211;28;19975;-85
2023/08/17 12:06:20;;;;;;;;;;;;;;;20.09;100.00;102125.28;4985533;28;20249;-81
2023/08/17 12:09:15;;;;;;;;;;;;;;;20.10;100.00;102126.16;4986947;28;19960;-82
2023/08/17 12:12:01;;;;;;;;;;;;;;;20.12;100.00;102129.59;4986225;28;19929;-82
2023/08/17 12:14:47;;;;;;;;;;;;;;;20.12;100.00;102127.78;4993913;28;19929;-81
2023/08/17 12:17:33;;;;;;;;;;;;;;;20.13;100.00;102136.69;4970785;28;20118;-83
2023/08/17 12:20:20;;;;;;;;;;;;;;;20.13;100.00;102134.88;4986039;28;19929;-85
2023/08/17 12:23:05;;;;;;;;;;;;;;;20.18;100.00;102139.94;4976160;28;20015;-80
2023/08/17 12:25:54;;;;;;;;;;;;;;;20.13;100.00;102145.63;4985889;28;19935;-82
2023/08/17 12:28:40;;;;;;;;;;;;;;;20.10;100.00;102137.75;4988617;28;20024;-83
2023/08/17 12:31:29;;;;;;;;;;;;;;;20.08;100.00;102135.19;4978381;28;19930;-82
2023/08/17 12:34:17;;;;;;;;;;;;;;;20.08;100.00;102137.00;4981625;28;19926;-78
2023/08/17 12:37:02;;;;;;;;;;;;;;;20.05;100.00;102131.84;4986239;28;19929;-83
2023/08/17 12:39:48;;;;;;;;;;;;;;;20.01;100.00;102135.69;4982094;28;20350;-81
2023/08/17 12:42:34;;;;;;;;;;;;;;;20.02;100.00;102124.84;4985938;28;19925;-86
2023/08/17 12:45:19;;;;;;;;;;;;;;;20.02;100.00;102132.03;4986614;28;19929;-85
2023/08/17 12:48:05;;;;;;;;;;;;;;;20.00;100.00;102140.19;4986189;28;19987;-84
2023/08/17 12:50:51;;;;;;;;;;;;;;;20.00;100.00;102128.59;4989772;28;20408;-82
2023/08/17 12:53:36;;;;;;;;;;;;;;;19.98;100.00;102127.84;4984117;28;19929;-83
2023/08/17 12:56:22;;;;;;;;;;;;;;;19.89;100.00;102132.78;4945618;28;1111817;-85
2023/08/17 12:59:08;;;;;;;;;;;;;;;19.85;100.00;102136.66;4993779;28;19925;-83
2023/08/17 13:01:53;;;;;;;;;;;;;;;19.76;100.00;102132.75;4999412;28;19925;-86
2023/08/17 13:04:42;;;;;;;;;;;;;;;19.70;100.00;102137.63;4990008;28;19932;-83
2023/08/17 13:07:30;;;;;;;;;;;;;;;19.62;100.00;102130.09;4994097;28;19933;-88
2023/08/17 13:10:16;;;;;;;;;;;;;;;19.59;100.00;102132.94;5001953;28;19969;-82
2023/08/17 13:13:02;;;;;;;;;;;;;;;19.56;100.00;102142.09;4998888;28;19921;-84
2023/08/17 13:15:48;;;;;;;;;;;;;;;19.56;100.00;102141.22;4998863;28;20489;-85
2023/08/17 13:18:33;;;;;;;;;;;;;;;19.53;100.00;102143.13;4999970;28;19926;-87
2023/08/17 13:21:20;;;;;;;;;;;;;;;19.51;100.00;102130.75;5000965;28;20467;-85
2023/08/17 13:24:08;;;;;;;;;;;;;;;19.50;100.00;102134.41;5000745;28;19929;-82
2023/08/17 13:26:56;;;;;;;;;;;;;;;19.49;100.00;102132.66;4984685;28;20035;-84
2023/08/17 13:29:41;;;;;;;;;;;;;;;19.49;100.00;102135.34;5002666;28;20499;-81
2023/08/17 13:32:27;;;;;;;;;;;;;;;19.44;100.00;102129.44;4999013;28;19929;-84
2023/08/17 13:35:13;;;;;;;;;;;;;;;19.46;100.00;102130.19;5002163;28;19925;-85
2023/08/17 13:37:59;;;;;;;;;;;;;;;19.47;100.00;102131.91;5001863;28;19992;-85
2023/08/17 13:40:45;;;;;;;;;;;;;;;19.46;100.00;102127.50;4998732;28;19932;-86
2023/08/17 13:43:31;;;;;;;;;;;;;;;19.46;100.00;102132.88;4995968;28;19925;-83
2023/08/17 13:46:18;;;;;;;;;;;;;;;19.45;100.00;102131.16;4993706;28;19921;-84
2023/08/17 13:49:06;;;;;;;;;;;;;;;19.44;100.00;102135.66;4995587;28;19979;-83
2023/08/17 13:51:52;;;;;;;;;;;;;;;19.46;100.00;102130.19;4987196;28;19925;-82
2023/08/17 13:54:38;;;;;;;;;;;;;;;19.43;100.00;102127.72;4998306;28;19926;-85
2023/08/17 13:57:23;;;;;;;;;;;;;;;19.39;100.00;102138.63;4999989;28;19926;-83
2023/08/17 14:00:09;;;;;;;;;;;;;;;19.36;100.00;102133.47;5010740;28;19961;-85
2023/08/17 14:02:58;;;;;;;;;;;;;;;19.36;100.00;102127.22;4997604;28;20613;-85
2023/08/17 14:05:44;;;;;;;;;;;;;;;19.31;100.00;102134.69;4997295;28;20125;-81